sensor_id;sensor_type;location;lat;lon;timestamp;P1;durP1;ratioP1;P2;durP2;ratioP2
24801;SDS011;12898;50.520;12.152;2024-03-02T00:00:21;48.97;;;26.73;;
24801;SDS011;12898;50.520;12.152;2024-03-02T00:02:48;48.67;;;27.77;;
24801;SDS011;12898;50.520;12.152;2024-03-02T00:05:15;55.63;;;28.87;;
24801;SDS011;12898;50.520;12.152;2024-03-02T00:07:43;54.27;;;28.47;;
24801;SDS011;12898;50.520;12.152;2024-03-02T00:10:27;52.93;;;29.50;;
24801;SDS011;12898;50.520;12.152;2024-03-02T00:13:04;53.23;;;28.77;;
24801;SDS011;12898;50.520;12.152;2024-03-02T00:18:19;57.63;;;31.13;;
24801;SDS011;12898;50.520;12.152;2024-03-02T00:20:52;55.50;;;29.77;;
24801;SDS011;12898;50.520;12.152;2024-03-02T00:23:22;56.27;;;28.53;;
24801;SDS011;12898;50.520;12.152;2024-03-02T00:25:51;57.00;;;29.43;;
24801;SDS011;12898;50.520;12.152;2024-03-02T00:28:25;57.30;;;29.07;;
24801;SDS011;12898;50.520;12.152;2024-03-02T00:30:55;54.03;;;28.27;;
24801;SDS011;12898;50.520;12.152;2024-03-02T00:35:58;59.27;;;29.97;;
24801;SDS011;12898;50.520;12.152;2024-03-02T00:38:26;56.77;;;28.80;;
24801;SDS011;12898;50.520;12.152;2024-03-02T00:40:52;53.77;;;27.93;;
24801;SDS011;12898;50.520;12.152;2024-03-02T00:46:11;57.03;;;29.60;;
24801;SDS011;12898;50.520;12.152;2024-03-02T00:48:38;56.27;;;29.00;;
24801;SDS011;12898;50.520;12.152;2024-03-02T00:51:12;50.77;;;27.83;;
24801;SDS011;12898;50.520;12.152;2024-03-02T00:53:38;50.17;;;26.30;;
24801;SDS011;12898;50.520;12.152;2024-03-02T00:56:04;49.20;;;25.03;;
24801;SDS011;12898;50.520;12.152;2024-03-02T00:58:37;50.23;;;25.53;;
24801;SDS011;12898;50.520;12.152;2024-03-02T01:01:03;51.97;;;26.93;;
24801;SDS011;12898;50.520;12.152;2024-03-02T01:03:29;53.50;;;27.70;;
24801;SDS011;12898;50.520;12.152;2024-03-02T01:05:56;55.63;;;29.37;;
24801;SDS011;12898;50.520;12.152;2024-03-02T01:08:22;66.00;;;34.00;;
24801;SDS011;12898;50.520;12.152;2024-03-02T01:10:48;63.53;;;32.07;;
24801;SDS011;12898;50.520;12.152;2024-03-02T01:13:14;61.43;;;32.30;;
24801;SDS011;12898;50.520;12.152;2024-03-02T01:15:40;60.37;;;32.53;;
24801;SDS011;12898;50.520;12.152;2024-03-02T01:18:06;64.17;;;33.20;;
24801;SDS011;12898;50.520;12.152;2024-03-02T01:20:32;66.83;;;34.00;;
24801;SDS011;12898;50.520;12.152;2024-03-02T01:22:57;69.93;;;34.87;;
24801;SDS011;12898;50.520;12.152;2024-03-02T01:25:23;62.50;;;32.03;;
24801;SDS011;12898;50.520;12.152;2024-03-02T01:27:50;57.53;;;30.10;;
24801;SDS011;12898;50.520;12.152;2024-03-02T01:30:15;55.20;;;29.07;;
24801;SDS011;12898;50.520;12.152;2024-03-02T01:32:41;62.83;;;31.37;;
24801;SDS011;12898;50.520;12.152;2024-03-02T01:35:07;64.80;;;31.77;;
24801;SDS011;12898;50.520;12.152;2024-03-02T01:37:33;59.17;;;30.43;;
24801;SDS011;12898;50.520;12.152;2024-03-02T01:39:59;60.43;;;29.90;;
24801;SDS011;12898;50.520;12.152;2024-03-02T01:42:25;57.03;;;29.17;;
24801;SDS011;12898;50.520;12.152;2024-03-02T01:44:51;55.50;;;29.57;;
24801;SDS011;12898;50.520;12.152;2024-03-02T01:47:17;54.70;;;29.47;;
24801;SDS011;12898;50.520;12.152;2024-03-02T01:49:43;59.37;;;27.97;;
24801;SDS011;12898;50.520;12.152;2024-03-02T01:52:09;54.63;;;26.93;;
24801;SDS011;12898;50.520;12.152;2024-03-02T01:54:34;47.90;;;24.67;;
24801;SDS011;12898;50.520;12.152;2024-03-02T01:57:00;49.80;;;25.07;;
24801;SDS011;12898;50.520;12.152;2024-03-02T01:59:26;50.07;;;25.27;;
24801;SDS011;12898;50.520;12.152;2024-03-02T02:01:52;48.50;;;24.17;;
24801;SDS011;12898;50.520;12.152;2024-03-02T02:04:18;63.33;;;29.23;;
24801;SDS011;12898;50.520;12.152;2024-03-02T02:06:46;60.57;;;28.07;;
24801;SDS011;12898;50.520;12.152;2024-03-02T02:09:12;70.57;;;31.10;;
24801;SDS011;12898;50.520;12.152;2024-03-02T02:11:38;61.40;;;28.53;;
24801;SDS011;12898;50.520;12.152;2024-03-02T02:14:04;58.57;;;28.47;;
24801;SDS011;12898;50.520;12.152;2024-03-02T02:16:31;68.07;;;29.50;;
24801;SDS011;12898;50.520;12.152;2024-03-02T02:18:57;52.47;;;26.63;;
24801;SDS011;12898;50.520;12.152;2024-03-02T02:21:22;59.87;;;28.17;;
24801;SDS011;12898;50.520;12.152;2024-03-02T02:23:48;62.50;;;30.20;;
24801;SDS011;12898;50.520;12.152;2024-03-02T02:26:15;62.33;;;29.80;;
24801;SDS011;12898;50.520;12.152;2024-03-02T02:28:41;65.70;;;29.40;;
24801;SDS011;12898;50.520;12.152;2024-03-02T02:31:15;68.90;;;30.97;;
24801;SDS011;12898;50.520;12.152;2024-03-02T02:33:41;61.60;;;29.93;;
24801;SDS011;12898;50.520;12.152;2024-03-02T02:36:08;62.47;;;29.30;;
24801;SDS011;12898;50.520;12.152;2024-03-02T02:38:41;57.90;;;26.83;;
24801;SDS011;12898;50.520;12.152;2024-03-02T02:41:11;60.53;;;30.07;;
24801;SDS011;12898;50.520;12.152;2024-03-02T02:43:38;59.23;;;29.97;;
24801;SDS011;12898;50.520;12.152;2024-03-02T02:46:05;58.80;;;27.80;;
24801;SDS011;12898;50.520;12.152;2024-03-02T02:48:30;55.67;;;27.57;;
24801;SDS011;12898;50.520;12.152;2024-03-02T02:50:56;53.67;;;28.17;;
24801;SDS011;12898;50.520;12.152;2024-03-02T02:53:22;50.07;;;25.37;;
24801;SDS011;12898;50.520;12.152;2024-03-02T02:55:48;46.27;;;24.00;;
24801;SDS011;12898;50.520;12.152;2024-03-02T02:58:13;45.63;;;24.23;;
24801;SDS011;12898;50.520;12.152;2024-03-02T03:00:39;48.43;;;24.80;;
24801;SDS011;12898;50.520;12.152;2024-03-02T03:03:05;54.33;;;25.67;;
24801;SDS011;12898;50.520;12.152;2024-03-02T03:05:31;45.20;;;24.63;;
24801;SDS011;12898;50.520;12.152;2024-03-02T03:07:57;50.47;;;26.10;;
24801;SDS011;12898;50.520;12.152;2024-03-02T03:10:22;55.80;;;26.63;;
24801;SDS011;12898;50.520;12.152;2024-03-02T03:12:50;53.90;;;28.67;;
24801;SDS011;12898;50.520;12.152;2024-03-02T03:15:16;56.23;;;27.20;;
24801;SDS011;12898;50.520;12.152;2024-03-02T03:17:42;63.67;;;30.53;;
24801;SDS011;12898;50.520;12.152;2024-03-02T03:20:08;65.53;;;31.43;;
24801;SDS011;12898;50.520;12.152;2024-03-02T03:22:35;65.60;;;30.27;;
24801;SDS011;12898;50.520;12.152;2024-03-02T03:25:01;73.00;;;32.70;;
24801;SDS011;12898;50.520;12.152;2024-03-02T03:27:28;65.60;;;31.67;;
24801;SDS011;12898;50.520;12.152;2024-03-02T03:29:54;73.70;;;32.37;;
24801;SDS011;12898;50.520;12.152;2024-03-02T03:32:20;66.10;;;29.43;;
24801;SDS011;12898;50.520;12.152;2024-03-02T03:34:46;72.13;;;33.60;;
24801;SDS011;12898;50.520;12.152;2024-03-02T03:37:13;69.83;;;33.50;;
24801;SDS011;12898;50.520;12.152;2024-03-02T03:39:40;67.67;;;31.67;;
24801;SDS011;12898;50.520;12.152;2024-03-02T03:42:06;60.73;;;28.87;;
24801;SDS011;12898;50.520;12.152;2024-03-02T03:44:32;66.13;;;30.97;;
24801;SDS011;12898;50.520;12.152;2024-03-02T03:46:58;62.33;;;30.60;;
24801;SDS011;12898;50.520;12.152;2024-03-02T03:49:24;68.33;;;32.53;;
24801;SDS011;12898;50.520;12.152;2024-03-02T03:51:50;67.87;;;32.73;;
24801;SDS011;12898;50.520;12.152;2024-03-02T03:54:15;73.23;;;32.43;;
24801;SDS011;12898;50.520;12.152;2024-03-02T03:56:41;64.23;;;31.83;;
24801;SDS011;12898;50.520;12.152;2024-03-02T03:59:07;62.53;;;32.73;;
24801;SDS011;12898;50.520;12.152;2024-03-02T04:01:33;69.83;;;31.97;;
24801;SDS011;12898;50.520;12.152;2024-03-02T04:03:58;70.83;;;32.33;;
24801;SDS011;12898;50.520;12.152;2024-03-02T04:06:27;61.00;;;30.67;;
24801;SDS011;12898;50.520;12.152;2024-03-02T04:08:52;62.50;;;30.30;;
24801;SDS011;12898;50.520;12.152;2024-03-02T04:11:18;57.37;;;30.00;;
24801;SDS011;12898;50.520;12.152;2024-03-02T04:13:44;58.23;;;28.97;;
24801;SDS011;12898;50.520;12.152;2024-03-02T04:16:09;62.47;;;30.83;;
24801;SDS011;12898;50.520;12.152;2024-03-02T04:18:35;59.97;;;30.13;;
24801;SDS011;12898;50.520;12.152;2024-03-02T04:21:01;61.63;;;30.60;;
24801;SDS011;12898;50.520;12.152;2024-03-02T04:23:26;69.07;;;33.13;;
24801;SDS011;12898;50.520;12.152;2024-03-02T04:25:52;58.00;;;29.70;;
24801;SDS011;12898;50.520;12.152;2024-03-02T04:28:18;61.33;;;29.23;;
24801;SDS011;12898;50.520;12.152;2024-03-02T04:30:44;54.40;;;28.73;;
24801;SDS011;12898;50.520;12.152;2024-03-02T04:33:09;63.57;;;31.20;;
24801;SDS011;12898;50.520;12.152;2024-03-02T04:35:36;53.97;;;28.63;;
24801;SDS011;12898;50.520;12.152;2024-03-02T04:38:02;57.63;;;28.90;;
24801;SDS011;12898;50.520;12.152;2024-03-02T04:40:28;52.50;;;28.00;;
24801;SDS011;12898;50.520;12.152;2024-03-02T04:42:54;58.63;;;28.67;;
24801;SDS011;12898;50.520;12.152;2024-03-02T04:45:19;52.93;;;27.30;;
24801;SDS011;12898;50.520;12.152;2024-03-02T04:47:45;51.77;;;26.00;;
24801;SDS011;12898;50.520;12.152;2024-03-02T04:50:11;53.97;;;26.23;;
24801;SDS011;12898;50.520;12.152;2024-03-02T04:52:37;53.90;;;26.17;;
24801;SDS011;12898;50.520;12.152;2024-03-02T04:55:03;47.57;;;25.90;;
24801;SDS011;12898;50.520;12.152;2024-03-02T04:57:35;48.83;;;25.97;;
24801;SDS011;12898;50.520;12.152;2024-03-02T05:00:00;53.03;;;24.83;;
24801;SDS011;12898;50.520;12.152;2024-03-02T05:02:26;52.40;;;26.93;;
24801;SDS011;12898;50.520;12.152;2024-03-02T05:04:52;48.67;;;25.43;;
24801;SDS011;12898;50.520;12.152;2024-03-02T05:07:18;50.80;;;25.03;;
24801;SDS011;12898;50.520;12.152;2024-03-02T05:09:43;44.80;;;23.80;;
24801;SDS011;12898;50.520;12.152;2024-03-02T05:12:09;46.47;;;26.10;;
24801;SDS011;12898;50.520;12.152;2024-03-02T05:14:54;41.67;;;21.63;;
24801;SDS011;12898;50.520;12.152;2024-03-02T05:17:21;44.07;;;23.90;;
24801;SDS011;12898;50.520;12.152;2024-03-02T05:19:46;43.80;;;23.13;;
24801;SDS011;12898;50.520;12.152;2024-03-02T05:22:13;40.40;;;22.43;;
24801;SDS011;12898;50.520;12.152;2024-03-02T05:24:38;41.03;;;21.97;;
24801;SDS011;12898;50.520;12.152;2024-03-02T05:27:04;35.80;;;21.03;;
24801;SDS011;12898;50.520;12.152;2024-03-02T05:29:31;44.10;;;23.70;;
24801;SDS011;12898;50.520;12.152;2024-03-02T05:31:57;44.17;;;23.40;;
24801;SDS011;12898;50.520;12.152;2024-03-02T05:34:22;47.70;;;25.67;;
24801;SDS011;12898;50.520;12.152;2024-03-02T05:36:48;48.73;;;24.60;;
24801;SDS011;12898;50.520;12.152;2024-03-02T05:39:14;45.60;;;25.13;;
24801;SDS011;12898;50.520;12.152;2024-03-02T05:41:40;48.30;;;26.33;;
24801;SDS011;12898;50.520;12.152;2024-03-02T05:44:06;48.50;;;25.40;;
24801;SDS011;12898;50.520;12.152;2024-03-02T05:46:32;46.70;;;24.53;;
24801;SDS011;12898;50.520;12.152;2024-03-02T05:48:59;53.87;;;26.80;;
24801;SDS011;12898;50.520;12.152;2024-03-02T05:51:25;46.33;;;25.90;;
24801;SDS011;12898;50.520;12.152;2024-03-02T05:53:51;43.63;;;24.13;;
24801;SDS011;12898;50.520;12.152;2024-03-02T05:56:17;47.10;;;25.03;;
24801;SDS011;12898;50.520;12.152;2024-03-02T05:58:43;46.97;;;25.73;;
24801;SDS011;12898;50.520;12.152;2024-03-02T06:01:22;46.23;;;25.17;;
24801;SDS011;12898;50.520;12.152;2024-03-02T06:03:53;52.53;;;25.37;;
24801;SDS011;12898;50.520;12.152;2024-03-02T06:06:21;45.40;;;25.17;;
24801;SDS011;12898;50.520;12.152;2024-03-02T06:08:47;52.67;;;26.70;;
24801;SDS011;12898;50.520;12.152;2024-03-02T06:11:13;45.90;;;24.17;;
24801;SDS011;12898;50.520;12.152;2024-03-02T06:13:39;43.40;;;23.33;;
24801;SDS011;12898;50.520;12.152;2024-03-02T06:16:05;43.75;;;23.08;;
24801;SDS011;12898;50.520;12.152;2024-03-02T06:18:31;43.97;;;23.00;;
24801;SDS011;12898;50.520;12.152;2024-03-02T06:20:57;45.57;;;25.03;;
24801;SDS011;12898;50.520;12.152;2024-03-02T06:23:22;47.27;;;23.20;;
24801;SDS011;12898;50.520;12.152;2024-03-02T06:25:48;41.88;;;22.35;;
24801;SDS011;12898;50.520;12.152;2024-03-02T06:28:14;44.72;;;23.10;;
24801;SDS011;12898;50.520;12.152;2024-03-02T06:30:40;44.17;;;24.13;;
24801;SDS011;12898;50.520;12.152;2024-03-02T06:33:08;46.28;;;23.48;;
24801;SDS011;12898;50.520;12.152;2024-03-02T06:35:34;44.77;;;23.20;;
24801;SDS011;12898;50.520;12.152;2024-03-02T06:38:00;40.30;;;21.83;;
24801;SDS011;12898;50.520;12.152;2024-03-02T06:40:26;48.10;;;24.07;;
24801;SDS011;12898;50.520;12.152;2024-03-02T06:42:52;44.55;;;23.98;;
24801;SDS011;12898;50.520;12.152;2024-03-02T06:45:18;43.80;;;23.77;;
24801;SDS011;12898;50.520;12.152;2024-03-02T06:47:44;44.27;;;23.30;;
24801;SDS011;12898;50.520;12.152;2024-03-02T06:50:10;45.60;;;24.27;;
24801;SDS011;12898;50.520;12.152;2024-03-02T06:52:36;48.90;;;25.52;;
24801;SDS011;12898;50.520;12.152;2024-03-02T06:55:02;44.90;;;25.63;;
24801;SDS011;12898;50.520;12.152;2024-03-02T06:57:29;43.65;;;23.75;;
24801;SDS011;12898;50.520;12.152;2024-03-02T06:59:55;46.20;;;23.27;;
24801;SDS011;12898;50.520;12.152;2024-03-02T07:02:23;43.17;;;22.97;;
24801;SDS011;12898;50.520;12.152;2024-03-02T07:04:51;42.40;;;23.27;;
24801;SDS011;12898;50.520;12.152;2024-03-02T07:07:18;40.73;;;21.97;;
24801;SDS011;12898;50.520;12.152;2024-03-02T07:09:44;39.80;;;21.70;;
24801;SDS011;12898;50.520;12.152;2024-03-02T07:12:09;41.35;;;21.88;;
24801;SDS011;12898;50.520;12.152;2024-03-02T07:14:35;39.03;;;21.33;;
24801;SDS011;12898;50.520;12.152;2024-03-02T07:17:19;37.75;;;21.70;;
24801;SDS011;12898;50.520;12.152;2024-03-02T07:19:45;42.13;;;21.90;;
24801;SDS011;12898;50.520;12.152;2024-03-02T07:22:11;39.63;;;22.15;;
24801;SDS011;12898;50.520;12.152;2024-03-02T07:24:43;39.50;;;21.77;;
24801;SDS011;12898;50.520;12.152;2024-03-02T07:27:10;37.38;;;21.15;;
24801;SDS011;12898;50.520;12.152;2024-03-02T07:29:38;39.28;;;22.05;;
24801;SDS011;12898;50.520;12.152;2024-03-02T07:32:05;39.05;;;21.30;;
24801;SDS011;12898;50.520;12.152;2024-03-02T07:34:32;35.35;;;20.20;;
24801;SDS011;12898;50.520;12.152;2024-03-02T07:36:58;35.95;;;20.13;;
24801;SDS011;12898;50.520;12.152;2024-03-02T07:39:24;36.55;;;20.55;;
24801;SDS011;12898;50.520;12.152;2024-03-02T07:41:50;32.42;;;18.73;;
24801;SDS011;12898;50.520;12.152;2024-03-02T07:44:16;32.47;;;18.65;;
24801;SDS011;12898;50.520;12.152;2024-03-02T07:46:44;36.67;;;19.23;;
24801;SDS011;12898;50.520;12.152;2024-03-02T07:49:11;33.28;;;18.42;;
24801;SDS011;12898;50.520;12.152;2024-03-02T07:51:40;34.95;;;19.48;;
24801;SDS011;12898;50.520;12.152;2024-03-02T07:54:06;32.78;;;18.73;;
24801;SDS011;12898;50.520;12.152;2024-03-02T07:56:32;30.70;;;17.23;;
24801;SDS011;12898;50.520;12.152;2024-03-02T07:58:58;31.95;;;18.17;;
24801;SDS011;12898;50.520;12.152;2024-03-02T08:01:27;31.92;;;17.95;;
24801;SDS011;12898;50.520;12.152;2024-03-02T08:03:55;32.17;;;18.00;;
24801;SDS011;12898;50.520;12.152;2024-03-02T08:06:23;31.20;;;16.88;;
24801;SDS011;12898;50.520;12.152;2024-03-02T08:08:52;29.42;;;16.63;;
24801;SDS011;12898;50.520;12.152;2024-03-02T08:11:19;32.47;;;17.30;;
24801;SDS011;12898;50.520;12.152;2024-03-02T08:13:46;28.95;;;17.15;;
24801;SDS011;12898;50.520;12.152;2024-03-02T08:16:12;31.35;;;17.73;;
24801;SDS011;12898;50.520;12.152;2024-03-02T08:18:38;33.22;;;18.20;;
24801;SDS011;12898;50.520;12.152;2024-03-02T08:21:04;29.02;;;16.77;;
24801;SDS011;12898;50.520;12.152;2024-03-02T08:23:30;27.65;;;16.85;;
24801;SDS011;12898;50.520;12.152;2024-03-02T08:25:57;30.27;;;17.35;;
24801;SDS011;12898;50.520;12.152;2024-03-02T08:28:22;29.77;;;17.42;;
24801;SDS011;12898;50.520;12.152;2024-03-02T08:30:48;27.40;;;15.55;;
24801;SDS011;12898;50.520;12.152;2024-03-02T08:33:14;27.90;;;16.40;;
24801;SDS011;12898;50.520;12.152;2024-03-02T08:35:40;32.78;;;17.70;;
24801;SDS011;12898;50.520;12.152;2024-03-02T08:38:05;32.78;;;17.38;;
24801;SDS011;12898;50.520;12.152;2024-03-02T08:40:31;29.95;;;16.95;;
24801;SDS011;12898;50.520;12.152;2024-03-02T08:42:57;28.02;;;16.17;;
24801;SDS011;12898;50.520;12.152;2024-03-02T08:45:23;30.02;;;16.67;;
24801;SDS011;12898;50.520;12.152;2024-03-02T08:47:48;28.92;;;16.58;;
24801;SDS011;12898;50.520;12.152;2024-03-02T08:50:14;30.40;;;17.63;;
24801;SDS011;12898;50.520;12.152;2024-03-02T08:52:40;29.05;;;16.73;;
24801;SDS011;12898;50.520;12.152;2024-03-02T08:55:06;29.08;;;16.40;;
24801;SDS011;12898;50.520;12.152;2024-03-02T08:57:32;29.95;;;17.50;;
24801;SDS011;12898;50.520;12.152;2024-03-02T08:59:58;29.45;;;16.38;;
24801;SDS011;12898;50.520;12.152;2024-03-02T09:02:25;28.85;;;16.67;;
24801;SDS011;12898;50.520;12.152;2024-03-02T09:04:51;28.15;;;16.55;;
24801;SDS011;12898;50.520;12.152;2024-03-02T09:07:17;27.83;;;15.68;;
24801;SDS011;12898;50.520;12.152;2024-03-02T09:09:43;28.65;;;16.10;;
24801;SDS011;12898;50.520;12.152;2024-03-02T09:12:09;31.10;;;17.55;;
24801;SDS011;12898;50.520;12.152;2024-03-02T09:14:35;28.65;;;16.55;;
24801;SDS011;12898;50.520;12.152;2024-03-02T09:17:02;29.45;;;16.38;;
24801;SDS011;12898;50.520;12.152;2024-03-02T09:19:29;29.63;;;16.30;;
24801;SDS011;12898;50.520;12.152;2024-03-02T09:21:55;27.70;;;15.57;;
24801;SDS011;12898;50.520;12.152;2024-03-02T09:24:21;28.85;;;16.27;;
24801;SDS011;12898;50.520;12.152;2024-03-02T09:26:47;29.33;;;16.38;;
24801;SDS011;12898;50.520;12.152;2024-03-02T09:29:13;28.88;;;15.80;;
24801;SDS011;12898;50.520;12.152;2024-03-02T09:31:39;24.90;;;15.20;;
24801;SDS011;12898;50.520;12.152;2024-03-02T09:34:06;24.83;;;14.23;;
24801;SDS011;12898;50.520;12.152;2024-03-02T09:36:32;25.98;;;15.23;;
24801;SDS011;12898;50.520;12.152;2024-03-02T09:38:58;23.75;;;14.13;;
24801;SDS011;12898;50.520;12.152;2024-03-02T09:41:24;23.02;;;13.82;;
24801;SDS011;12898;50.520;12.152;2024-03-02T09:43:50;23.23;;;14.35;;
24801;SDS011;12898;50.520;12.152;2024-03-02T09:46:16;23.30;;;13.85;;
24801;SDS011;12898;50.520;12.152;2024-03-02T09:48:43;21.27;;;12.45;;
24801;SDS011;12898;50.520;12.152;2024-03-02T09:51:10;24.85;;;12.90;;
24801;SDS011;12898;50.520;12.152;2024-03-02T09:53:36;20.17;;;12.43;;
24801;SDS011;12898;50.520;12.152;2024-03-02T09:56:02;21.17;;;12.50;;
24801;SDS011;12898;50.520;12.152;2024-03-02T09:58:29;22.05;;;12.32;;
24801;SDS011;12898;50.520;12.152;2024-03-02T10:00:55;20.98;;;13.48;;
24801;SDS011;12898;50.520;12.152;2024-03-02T10:03:22;21.30;;;13.10;;
24801;SDS011;12898;50.520;12.152;2024-03-02T10:05:51;22.23;;;11.85;;
24801;SDS011;12898;50.520;12.152;2024-03-02T10:08:17;22.50;;;13.02;;
24801;SDS011;12898;50.520;12.152;2024-03-02T10:10:42;21.65;;;12.70;;
24801;SDS011;12898;50.520;12.152;2024-03-02T10:13:12;22.00;;;12.88;;
24801;SDS011;12898;50.520;12.152;2024-03-02T10:15:39;21.52;;;12.57;;
24801;SDS011;12898;50.520;12.152;2024-03-02T10:18:09;20.15;;;12.07;;
24801;SDS011;12898;50.520;12.152;2024-03-02T10:20:40;19.33;;;12.38;;
24801;SDS011;12898;50.520;12.152;2024-03-02T10:23:13;19.67;;;12.77;;
24801;SDS011;12898;50.520;12.152;2024-03-02T10:25:41;20.27;;;11.57;;
24801;SDS011;12898;50.520;12.152;2024-03-02T10:28:07;18.27;;;11.30;;
24801;SDS011;12898;50.520;12.152;2024-03-02T10:30:33;18.52;;;12.10;;
24801;SDS011;12898;50.520;12.152;2024-03-02T10:33:00;19.40;;;11.85;;
24801;SDS011;12898;50.520;12.152;2024-03-02T10:35:27;20.55;;;12.15;;
24801;SDS011;12898;50.520;12.152;2024-03-02T10:37:53;20.48;;;12.35;;
24801;SDS011;12898;50.520;12.152;2024-03-02T10:40:22;19.50;;;12.00;;
24801;SDS011;12898;50.520;12.152;2024-03-02T10:42:49;20.17;;;12.40;;
24801;SDS011;12898;50.520;12.152;2024-03-02T10:45:19;20.90;;;12.80;;
24801;SDS011;12898;50.520;12.152;2024-03-02T10:47:48;20.85;;;11.93;;
24801;SDS011;12898;50.520;12.152;2024-03-02T10:50:16;23.42;;;12.70;;
24801;SDS011;12898;50.520;12.152;2024-03-02T10:52:42;16.63;;;10.13;;
24801;SDS011;12898;50.520;12.152;2024-03-02T10:55:08;20.33;;;12.18;;
24801;SDS011;12898;50.520;12.152;2024-03-02T10:57:54;18.90;;;11.73;;
24801;SDS011;12898;50.520;12.152;2024-03-02T11:00:21;22.30;;;12.45;;
24801;SDS011;12898;50.520;12.152;2024-03-02T11:02:58;20.52;;;11.13;;
24801;SDS011;12898;50.520;12.152;2024-03-02T11:05:36;18.75;;;11.40;;
24801;SDS011;12898;50.520;12.152;2024-03-02T11:08:12;20.60;;;12.10;;
24801;SDS011;12898;50.520;12.152;2024-03-02T11:10:48;21.50;;;12.13;;
24801;SDS011;12898;50.520;12.152;2024-03-02T11:13:16;17.83;;;10.90;;
24801;SDS011;12898;50.520;12.152;2024-03-02T11:15:53;17.88;;;11.63;;
24801;SDS011;12898;50.520;12.152;2024-03-02T11:18:24;19.25;;;12.07;;
24801;SDS011;12898;50.520;12.152;2024-03-02T11:20:51;19.05;;;11.73;;
24801;SDS011;12898;50.520;12.152;2024-03-02T11:23:19;22.05;;;12.43;;
24801;SDS011;12898;50.520;12.152;2024-03-02T11:26:21;19.23;;;12.00;;
24801;SDS011;12898;50.520;12.152;2024-03-02T11:28:50;18.63;;;11.75;;
24801;SDS011;12898;50.520;12.152;2024-03-02T11:31:16;19.88;;;11.82;;
24801;SDS011;12898;50.520;12.152;2024-03-02T11:33:42;19.80;;;11.57;;
24801;SDS011;12898;50.520;12.152;2024-03-02T11:36:08;19.02;;;11.40;;
24801;SDS011;12898;50.520;12.152;2024-03-02T11:38:34;21.42;;;12.73;;
24801;SDS011;12898;50.520;12.152;2024-03-02T11:41:01;18.50;;;11.50;;
24801;SDS011;12898;50.520;12.152;2024-03-02T11:43:38;20.00;;;11.75;;
24801;SDS011;12898;50.520;12.152;2024-03-02T11:46:04;19.83;;;11.27;;
24801;SDS011;12898;50.520;12.152;2024-03-02T11:48:38;19.30;;;11.93;;
24801;SDS011;12898;50.520;12.152;2024-03-02T11:51:04;17.80;;;11.52;;
24801;SDS011;12898;50.520;12.152;2024-03-02T11:53:30;18.17;;;11.32;;
24801;SDS011;12898;50.520;12.152;2024-03-02T11:55:59;20.00;;;11.38;;
24801;SDS011;12898;50.520;12.152;2024-03-02T11:58:27;18.65;;;11.20;;
24801;SDS011;12898;50.520;12.152;2024-03-02T12:00:53;20.25;;;11.77;;
24801;SDS011;12898;50.520;12.152;2024-03-02T12:03:21;22.45;;;11.73;;
24801;SDS011;12898;50.520;12.152;2024-03-02T12:05:54;17.70;;;10.57;;
24801;SDS011;12898;50.520;12.152;2024-03-02T12:08:20;17.58;;;10.60;;
24801;SDS011;12898;50.520;12.152;2024-03-02T12:11:00;18.95;;;11.18;;
24801;SDS011;12898;50.520;12.152;2024-03-02T12:13:26;17.40;;;10.65;;
24801;SDS011;12898;50.520;12.152;2024-03-02T12:15:53;18.33;;;9.93;;
24801;SDS011;12898;50.520;12.152;2024-03-02T12:18:21;16.25;;;10.10;;
24801;SDS011;12898;50.520;12.152;2024-03-02T12:20:48;16.35;;;9.77;;
24801;SDS011;12898;50.520;12.152;2024-03-02T12:23:17;17.20;;;10.13;;
24801;SDS011;12898;50.520;12.152;2024-03-02T12:25:43;17.25;;;10.32;;
24801;SDS011;12898;50.520;12.152;2024-03-02T12:28:10;17.73;;;9.30;;
24801;SDS011;12898;50.520;12.152;2024-03-02T12:30:36;16.00;;;8.82;;
24801;SDS011;12898;50.520;12.152;2024-03-02T12:33:02;14.35;;;8.43;;
24801;SDS011;12898;50.520;12.152;2024-03-02T12:35:28;14.57;;;8.38;;
24801;SDS011;12898;50.520;12.152;2024-03-02T12:37:54;13.98;;;8.02;;
24801;SDS011;12898;50.520;12.152;2024-03-02T12:40:21;12.90;;;7.35;;
24801;SDS011;12898;50.520;12.152;2024-03-02T12:42:47;15.00;;;9.20;;
24801;SDS011;12898;50.520;12.152;2024-03-02T12:45:15;16.60;;;8.60;;
24801;SDS011;12898;50.520;12.152;2024-03-02T12:47:41;14.73;;;8.32;;
24801;SDS011;12898;50.520;12.152;2024-03-02T12:50:08;15.00;;;8.65;;
24801;SDS011;12898;50.520;12.152;2024-03-02T12:52:34;14.82;;;7.85;;
24801;SDS011;12898;50.520;12.152;2024-03-02T12:55:01;13.25;;;7.65;;
24801;SDS011;12898;50.520;12.152;2024-03-02T12:57:30;14.35;;;7.75;;
24801;SDS011;12898;50.520;12.152;2024-03-02T12:59:58;12.95;;;7.13;;
24801;SDS011;12898;50.520;12.152;2024-03-02T13:02:36;14.32;;;7.47;;
24801;SDS011;12898;50.520;12.152;2024-03-02T13:05:06;13.60;;;7.38;;
24801;SDS011;12898;50.520;12.152;2024-03-02T13:07:36;12.13;;;6.72;;
24801;SDS011;12898;50.520;12.152;2024-03-02T13:10:03;12.73;;;6.43;;
24801;SDS011;12898;50.520;12.152;2024-03-02T13:12:30;12.27;;;6.57;;
24801;SDS011;12898;50.520;12.152;2024-03-02T13:14:57;11.27;;;6.35;;
24801;SDS011;12898;50.520;12.152;2024-03-02T13:17:27;11.15;;;6.18;;
24801;SDS011;12898;50.520;12.152;2024-03-02T13:19:53;12.05;;;6.65;;
24801;SDS011;12898;50.520;12.152;2024-03-02T13:22:21;12.73;;;6.95;;
24801;SDS011;12898;50.520;12.152;2024-03-02T13:24:48;12.73;;;6.57;;
24801;SDS011;12898;50.520;12.152;2024-03-02T13:27:15;12.60;;;6.75;;
24801;SDS011;12898;50.520;12.152;2024-03-02T13:29:41;11.88;;;6.85;;
24801;SDS011;12898;50.520;12.152;2024-03-02T13:32:07;11.57;;;6.32;;
24801;SDS011;12898;50.520;12.152;2024-03-02T13:34:35;13.95;;;7.28;;
24801;SDS011;12898;50.520;12.152;2024-03-02T13:37:02;12.50;;;6.93;;
24801;SDS011;12898;50.520;12.152;2024-03-02T13:39:29;12.88;;;6.38;;
24801;SDS011;12898;50.520;12.152;2024-03-02T13:41:57;13.32;;;6.85;;
24801;SDS011;12898;50.520;12.152;2024-03-02T13:44:29;12.18;;;6.32;;
24801;SDS011;12898;50.520;12.152;2024-03-02T13:46:55;13.95;;;7.00;;
24801;SDS011;12898;50.520;12.152;2024-03-02T13:49:22;12.13;;;6.68;;
24801;SDS011;12898;50.520;12.152;2024-03-02T13:51:48;13.85;;;7.43;;
24801;SDS011;12898;50.520;12.152;2024-03-02T13:54:14;11.38;;;6.40;;
24801;SDS011;12898;50.520;12.152;2024-03-02T13:56:40;15.07;;;6.32;;
24801;SDS011;12898;50.520;12.152;2024-03-02T13:59:06;13.73;;;7.28;;
24801;SDS011;12898;50.520;12.152;2024-03-02T14:01:33;13.30;;;6.28;;
24801;SDS011;12898;50.520;12.152;2024-03-02T14:03:59;10.52;;;5.55;;
24801;SDS011;12898;50.520;12.152;2024-03-02T14:06:25;11.27;;;6.03;;
24801;SDS011;12898;50.520;12.152;2024-03-02T14:08:52;9.63;;;5.40;;
24801;SDS011;12898;50.520;12.152;2024-03-02T14:11:18;9.18;;;5.07;;
24801;SDS011;12898;50.520;12.152;2024-03-02T14:13:44;10.00;;;5.35;;
24801;SDS011;12898;50.520;12.152;2024-03-02T14:16:18;10.50;;;6.03;;
24801;SDS011;12898;50.520;12.152;2024-03-02T14:18:44;13.10;;;5.68;;